メインページ
METAR-TAF:

METAR-TAF

空港 :

ダラス / フォートワース, テキサス州, アメリカ合衆国

ダラス・フォートワース国際空港

緯度: 32-53-49N, 経度: 097-01-19W, 海抜: 183m

現時点の気象観測

当レポートは17分前の10:53(UTC)に作成
の風 13kt
気温 26°C
湿度 79%
気圧 1011 hPa
視程: 16.1km
高度14000ftの雲はほとんどない
高度25000ftの雲は散在している

METAR: KDFW 201053Z 17013KT 10SM FEW140 SCT250 26/22 A2984 RMK AO2 SLP093 T02610222

時間: 06:10 (11:10 UTC)

予報

当レポートは2時間6分前の09:04(UTC)に作成
予報は20日の 09時(UTC)から 21日の 12時(UTC)まで有効
の風 15kt
視程: 10km
高度5000ftの雲はほとんどない
高度25000ftの雲は散在している
20日の 13時(UTC)から 20日の 15時(UTC)まで一時的に
高度1500ftの千切れ雲あり

TAF: KDFW 200904Z 2009/2112 17015KT P6SM FEW050 SCT250 TEMPO 2013/2015 BKN015

4,000以上の空港の気象観測と天気予報(METAR報とTAF報)

利用可能な観測所は地図上に黄色い丸と赤い丸で示す。

丸の上にカーソルを重ねると観測所名を参照できる。

次にクリックすると気象観測と天気予報を参照できる。

マップの切り替え:黒色「×」印の緑ボタンをクリックして拡大、「-」印の緑ボタンをクリックして縮小、緑色の三角印をクリックして隣りの地図に切り替え


METAR-TAF: